Time;durP1;ratioP1;P1;durP2;ratioP2;P2;SDS_P1;SDS_P2;PMS_P1;PMS_P2;Temp;Humidity;BMP_temperature;BMP_pressure;BME280_temperature;BME280_humidity;BME280_pressure;Samples;Min_cycle;Max_cycle;Signal;HPM_P1;HPM_P2
2022/12/06 00:01:16;;;;;;;5.88;1.23;;;;;;;3.30;55.90;101952.63;5033783;28;20029;-67
2022/12/06 00:03:44;;;;;;;4.55;0.57;;;;;;;3.22;56.04;101958.53;5030873;28;20037;-69
2022/12/06 00:06:12;;;;;;;4.65;1.27;;;;;;;3.02;56.47;101960.97;5031770;28;20482;-68
2022/12/06 00:08:38;;;;;;;1.42;0.80;;;;;;;3.31;55.58;101956.06;5031693;28;20140;-66
2022/12/06 00:11:10;;;;;;;2.58;1.35;;;;;;;3.28;55.88;101950.84;5034949;28;20037;-66
2022/12/06 00:13:36;;;;;;;1.98;0.65;;;;;;;3.44;55.13;101950.13;5031120;28;20041;-69
2022/12/06 00:16:04;;;;;;;1.55;0.98;;;;;;;3.21;56.23;101951.66;5032066;28;20026;-69
2022/12/06 00:18:31;;;;;;;4.55;0.77;;;;;;;3.24;56.02;101947.38;5031064;28;20045;-70
2022/12/06 00:21:07;;;;;;;3.15;1.00;;;;;;;3.33;55.20;101946.59;5031521;28;20510;-68
2022/12/06 00:23:37;;;;;;;4.10;0.88;;;;;;;3.12;56.00;101947.28;5030816;28;20499;-68
2022/12/06 00:26:03;;;;;;;6.20;1.15;;;;;;;2.87;56.82;101941.91;5032039;28;20030;-69
2022/12/06 00:28:29;;;;;;;3.63;1.05;;;;;;;3.14;55.67;101943.84;5030189;28;20300;-69
2022/12/06 00:30:59;;;;;;;2.53;1.10;;;;;;;3.01;56.35;101939.44;5030303;28;20577;-68
2022/12/06 00:33:25;;;;;;;4.20;0.90;;;;;;;3.25;55.26;101943.94;5030624;28;20048;-68
2022/12/06 00:35:55;;;;;;;3.22;1.23;;;;;;;3.11;55.89;101940.38;5032195;28;20037;-68
2022/12/06 00:38:20;;;;;;;10.88;1.52;;;;;;;3.27;55.37;101941.34;5031301;28;20033;-68
2022/12/06 00:40:45;;;;;;;8.38;1.20;;;;;;;3.29;55.46;101943.16;5030779;28;20152;-67
2022/12/06 00:43:11;;;;;;;5.40;0.90;;;;;;;3.39;54.95;101950.09;5030125;28;20065;-68
2022/12/06 00:45:36;;;;;;;4.50;1.17;;;;;;;3.36;54.97;101952.66;5029863;28;20044;-68
2022/12/06 00:48:02;;;;;;;4.65;1.23;;;;;;;3.41;55.21;101951.84;5043832;28;20102;-67
2022/12/06 00:50:27;;;;;;;2.78;1.30;;;;;;;3.34;55.41;101954.38;5031694;28;20025;-70
2022/12/06 00:52:53;;;;;;;3.65;0.70;;;;;;;3.22;55.74;101958.53;5030652;28;20044;-70
2022/12/06 00:55:20;;;;;;;3.97;1.02;;;;;;;3.33;55.17;101956.94;5031329;28;20037;-70
2022/12/06 00:57:46;;;;;;;3.28;1.15;;;;;;;3.38;54.98;101943.22;5031260;28;20387;-70
2022/12/06 01:00:12;;;;;;;3.55;0.75;;;;;;;3.32;55.00;101950.06;5031143;28;20021;-68
2022/12/06 01:02:37;;;;;;;2.40;0.60;;;;;;;2.94;56.88;101948.84;5029728;28;20037;-68
2022/12/06 01:05:03;;;;;;;6.15;1.05;;;;;;;3.01;56.61;101942.00;5029778;28;20060;-68
2022/12/06 01:07:29;;;;;;;3.15;0.65;;;;;;;3.06;56.64;101947.22;5033575;28;20046;-67
2022/12/06 01:09:54;;;;;;;8.45;1.80;;;;;;;3.19;56.34;101944.75;5031704;28;20494;-67
2022/12/06 01:12:19;;;;;;;2.20;0.70;;;;;;;3.28;55.86;101953.44;5033450;28;20068;-67
2022/12/06 01:14:45;;;;;;;3.45;1.10;;;;;;;3.28;55.67;101948.25;5036730;28;20059;-67
2022/12/06 01:17:10;;;;;;;9.65;1.45;;;;;;;2.85;57.38;101946.19;5030793;28;20124;-67
2022/12/06 01:19:36;;;;;;;2.38;1.05;;;;;;;3.18;56.32;101937.88;5047991;28;20315;-66
2022/12/06 01:22:01;;;;;;;4.70;1.02;;;;;;;3.21;56.32;101947.34;5033222;28;20038;-68
2022/12/06 01:24:27;;;;;;;3.30;1.05;;;;;;;3.15;56.19;101948.16;5036283;28;20402;-68
2022/12/06 01:26:52;;;;;;;6.78;1.15;;;;;;;3.22;56.34;101943.91;5032702;28;20131;-67
2022/12/06 01:29:17;;;;;;;2.90;0.77;;;;;;;3.12;57.00;101955.88;5033434;28;20037;-71
2022/12/06 01:31:43;;;;;;;7.15;1.75;;;;;;;3.31;56.22;101950.91;5031069;28;20067;-70
2022/12/06 01:34:14;;;;;;;2.70;0.60;;;;;;;3.15;56.63;101950.72;5033279;28;20033;-69
2022/12/06 01:36:39;;;;;;;5.32;1.25;;;;;;;3.35;56.00;101942.31;5037784;28;20255;-70
2022/12/06 01:39:09;;;;;;;5.53;0.95;;;;;;;3.36;56.16;101944.06;5037335;28;20037;-70
2022/12/06 01:41:36;;;;;;;3.40;0.88;;;;;;;3.29;55.77;101943.16;5038997;28;20028;-70
2022/12/06 01:44:05;;;;;;;3.50;1.13;;;;;;;3.34;56.14;101943.19;5064270;28;20044;-73
2022/12/06 01:46:37;;;;;;;4.30;1.52;;;;;;;3.27;56.17;101937.06;5033885;28;20033;-70
2022/12/06 01:49:12;;;;;;;6.93;1.10;;;;;;;3.34;55.57;101940.59;5028940;28;20075;-70
2022/12/06 01:51:46;;;;;;;2.28;1.05;;;;;;;3.23;56.12;101940.47;5026738;28;20045;-69
2022/12/06 01:54:14;;;;;;;3.35;1.08;;;;;;;3.21;56.07;101934.44;5036664;28;20299;-70
2022/12/06 01:56:40;;;;;;;3.25;1.20;;;;;;;3.05;56.87;101940.34;5020385;28;20041;-70
2022/12/06 01:59:07;;;;;;;4.57;1.05;;;;;;;3.22;56.46;101937.88;5037162;28;20052;-69
2022/12/06 02:01:33;;;;;;;5.00;1.20;;;;;;;3.10;56.55;101938.66;5048674;28;20021;-70
2022/12/06 02:04:00;;;;;;;5.68;1.75;;;;;;;3.40;55.75;101935.44;5030729;28;20105;-70
2022/12/06 02:06:28;;;;;;;4.75;1.15;;;;;;;3.32;55.90;101939.72;5036111;28;20025;-70
2022/12/06 02:08:57;;;;;;;3.22;0.90;;;;;;;3.48;55.12;101935.50;5028151;28;20386;-70
2022/12/06 02:11:22;;;;;;;8.18;1.48;;;;;;;3.38;55.20;101924.22;5033131;28;20265;-68
2022/12/06 02:13:48;;;;;;;1.73;0.75;;;;;;;3.41;55.35;101931.16;5031484;28;20037;-70
2022/12/06 02:16:38;;;;;;;6.63;0.60;;;;;;;3.23;55.56;101924.13;5019213;28;20082;-71
2022/12/06 02:19:15;;;;;;;5.13;0.63;;;;;;;3.38;55.19;101929.41;5032547;28;20056;-67
2022/12/06 02:21:46;;;;;;;2.03;0.35;;;;;;;3.21;55.62;101920.66;5029462;28;20040;-68
2022/12/06 02:24:30;;;;;;;2.97;0.47;;;;;;;3.09;56.57;101922.28;5030798;28;20098;-68
2022/12/06 02:27:18;;;;;;;1.80;0.45;;;;;;;3.00;56.09;101917.03;5031883;28;20048;-68
2022/12/06 02:30:07;;;;;;;0.95;0.30;;;;;;;2.55;57.31;101910.59;5030091;28;20485;-68
2022/12/06 02:32:51;;;;;;;2.20;0.38;;;;;;;2.69;56.22;101916.78;5028541;28;20606;-67
2022/12/06 02:35:33;;;;;;;1.88;0.40;;;;;;;2.92;55.78;101909.22;5040054;28;20160;-68
2022/12/06 02:38:04;;;;;;;;;;;;;;;2.76;55.76;101907.38;5029906;28;20490;-67
2022/12/06 02:40:38;;;;;;;2.05;0.20;;;;;;;2.54;55.98;101901.13;5054155;28;19916;-65
2022/12/06 02:43:27;;;;;;;1.52;0.30;;;;;;;2.15;57.48;101897.25;5032901;28;20048;-65
2022/12/06 02:45:58;;;;;;;0.75;0.10;;;;;;;2.44;56.84;101904.47;5031415;28;20056;-66
2022/12/06 02:48:25;;;;;;;0.57;0.13;;;;;;;2.22;57.34;101901.66;5034004;28;20048;-67
2022/12/06 02:51:12;;;;;;;3.97;0.30;;;;;;;2.69;55.94;101905.56;5030036;28;20102;-66
2022/12/06 02:53:42;;;;;;;2.00;0.32;;;;;;;2.62;56.59;101908.94;5030382;28;20524;-66
2022/12/06 02:56:07;;;;;;;0.88;0.20;;;;;;;2.79;56.00;101898.78;5039427;28;20029;-67
2022/12/06 02:58:37;;;;;;;1.00;0.25;;;;;;;2.68;56.51;101898.69;5033159;28;20128;-69
2022/12/06 03:01:29;;;;;;;2.17;0.50;;;;;;;2.69;56.61;101890.97;5040344;28;20541;-69
2022/12/06 03:03:54;;;;;;;;;;;;;;;2.74;56.33;101888.41;5034353;28;20099;-67
2022/12/06 03:06:23;;;;;;;1.70;0.40;;;;;;;2.76;55.96;101892.75;5041040;28;19921;-67
2022/12/06 03:09:06;;;;;;;2.60;0.52;;;;;;;2.33;57.35;101887.16;5032164;28;20037;-68
2022/12/06 03:12:05;;;;;;;4.32;0.50;;;;;;;2.81;55.87;101889.34;5032396;28;20146;-68
2022/12/06 03:14:59;;;;;;;3.35;0.57;;;;;;;2.50;56.82;101895.06;5001248;28;20057;-67
2022/12/06 03:17:27;;;;;;;3.17;0.50;;;;;;;2.53;56.73;101895.13;5034414;28;20068;-67
2022/12/06 03:20:02;;;;;;;2.25;0.50;;;;;;;2.78;55.41;101890.19;5030957;28;20052;-67
2022/12/06 03:22:37;;;;;;;5.00;0.50;;;;;;;2.62;55.84;101891.72;5048383;28;20064;-67
2022/12/06 03:25:04;;;;;;;0.80;0.20;;;;;;;2.48;55.87;101890.75;5045836;28;20037;-66
2022/12/06 03:27:30;;;;;;;1.08;0.30;;;;;;;2.51;55.84;101895.94;5030751;28;20033;-67
2022/12/06 03:30:00;;;;;;;7.18;0.50;;;;;;;2.44;55.87;101897.56;5025989;28;20486;-67
2022/12/06 03:32:31;;;;;;;2.72;0.40;;;;;;;2.52;55.67;101895.09;5030598;28;20063;-66
2022/12/06 03:35:02;;;;;;;2.90;0.67;;;;;;;2.49;55.29;101889.91;5044592;28;20585;-67
2022/12/06 03:37:30;;;;;;;4.35;0.88;;;;;;;2.52;54.79;101892.50;5032756;28;20863;-66
2022/12/06 03:40:02;;;;;;;3.72;0.88;;;;;;;2.38;55.47;101894.97;5026984;28;20037;-67
2022/12/06 03:42:29;;;;;;;3.70;0.90;;;;;;;2.49;55.77;101892.50;5039007;28;20058;-66
2022/12/06 03:44:55;;;;;;;4.43;0.75;;;;;;;2.50;55.16;101887.31;5029144;28;20110;-67
2022/12/06 03:47:43;;;;;;;4.18;1.10;;;;;;;2.36;55.72;101883.75;5033007;28;20510;-67
2022/12/06 03:50:45;;;;;;;4.68;0.40;;;;;;;2.43;55.05;101887.25;5039432;28;20040;-67
2022/12/06 03:53:11;;;;;;;6.57;1.10;;;;;;;2.21;55.14;101875.84;5030950;28;20056;-67
2022/12/06 03:55:37;;;;;;;3.33;0.50;;;;;;;2.07;55.58;101878.28;5029787;28;20127;-67
2022/12/06 03:58:03;;;;;;;3.92;0.73;;;;;;;2.05;55.50;101874.81;5039494;28;20083;-67
2022/12/06 04:00:28;;;;;;;3.88;0.70;;;;;;;1.99;55.39;101877.31;5032112;28;20108;-65
2022/12/06 04:02:54;;;;;;;1.80;0.75;;;;;;;1.89;55.31;101869.47;5031741;28;20681;-66
2022/12/06 04:05:19;;;;;;;4.55;0.82;;;;;;;1.80;55.51;101868.50;5032668;28;20037;-67
2022/12/06 04:07:45;;;;;;;3.58;0.85;;;;;;;1.81;55.63;101876.22;5032036;28;20048;-66
2022/12/06 04:10:10;;;;;;;2.65;0.85;;;;;;;1.80;55.14;101869.34;5032074;28;20043;-66
2022/12/06 04:15:21;;;;;;;4.22;0.80;;;;;;;1.63;55.39;101865.69;5032083;28;20068;-66
2022/12/06 04:23:19;;;;;;;2.45;0.95;;;;;;;1.86;55.45;101868.56;5030204;28;20084;-66
2022/12/06 04:25:45;;;;;;;2.00;0.80;;;;;;;1.87;55.59;101849.69;5033028;28;20034;-68
2022/12/06 04:39:07;;;;;;;2.13;0.70;;;;;;;1.64;55.57;101857.09;5032446;28;20045;-69
2022/12/06 04:44:17;;;;;;;2.97;0.55;;;;;;;1.87;55.89;101850.53;5035686;28;20025;-69
2022/12/06 04:46:42;;;;;;;3.10;0.55;;;;;;;1.90;55.81;101849.69;5032504;28;20025;-69
2022/12/06 04:49:07;;;;;;;3.00;0.93;;;;;;;1.97;55.81;101850.63;5037377;28;20024;-69
2022/12/06 04:51:33;;;;;;;2.60;0.77;;;;;;;2.02;55.51;101846.38;5032290;28;20076;-69
2022/12/06 04:53:59;;;;;;;3.08;0.70;;;;;;;2.08;55.62;101849.91;5042503;28;20056;-70
2022/12/06 04:56:24;;;;;;;4.47;0.88;;;;;;;2.15;55.17;101850.84;5034114;28;20071;-68
2022/12/06 04:58:50;;;;;;;1.90;0.68;;;;;;;2.21;55.39;101850.06;5034717;28;20045;-66
2022/12/06 05:01:16;;;;;;;2.83;0.82;;;;;;;2.19;55.70;101852.59;5032483;28;20029;-66
2022/12/06 05:03:41;;;;;;;2.38;0.82;;;;;;;2.27;55.24;101850.97;5048737;28;20045;-66
2022/12/06 05:06:07;;;;;;;1.80;0.95;;;;;;;2.26;55.38;101859.56;5036422;28;20075;-67
2022/12/06 05:08:32;;;;;;;1.38;0.70;;;;;;;2.28;55.31;101862.16;5035980;28;20045;-67
2022/12/06 05:10:58;;;;;;;1.42;0.55;;;;;;;2.30;55.23;101856.16;5035989;28;20029;-71
2022/12/06 05:13:23;;;;;;;1.50;0.60;;;;;;;2.39;55.25;101854.53;5035626;28;20130;-73
2022/12/06 05:15:53;;;;;;;2.75;0.70;;;;;;;2.37;55.05;101856.22;5038227;28;20444;-74
2022/12/06 05:18:19;;;;;;;3.78;0.88;;;;;;;2.23;55.25;101854.38;5039214;28;22634;-72
2022/12/06 05:20:45;;;;;;;3.40;1.30;;;;;;;2.35;55.09;101848.47;5051153;28;20117;-73
2022/12/06 05:23:10;;;;;;;4.93;1.63;;;;;;;2.27;55.22;101857.88;5036422;28;20120;-70
2022/12/06 05:25:36;;;;;;;3.20;1.40;;;;;;;2.29;55.54;101849.28;5034165;28;20039;-69
2022/12/06 05:28:02;;;;;;;5.63;1.77;;;;;;;2.38;55.04;101847.63;5032541;28;20045;-70
2022/12/06 05:30:27;;;;;;;5.50;0.77;;;;;;;2.42;55.54;101846.81;5034907;28;20041;-70
2022/12/06 05:32:52;;;;;;;4.15;0.98;;;;;;;2.46;54.91;101851.16;5033805;28;20122;-70
2022/12/06 05:35:18;;;;;;;3.92;1.38;;;;;;;2.52;55.00;101838.31;5035603;28;20033;-71
2022/12/06 05:37:43;;;;;;;3.15;1.20;;;;;;;2.56;54.85;101840.06;5048663;28;20045;-67
2022/12/06 05:40:09;;;;;;;3.80;1.00;;;;;;;2.52;55.05;101836.59;5035788;28;20495;-73
2022/12/06 05:42:35;;;;;;;2.00;0.80;;;;;;;2.50;55.33;101842.59;5042916;28;20102;-73
2022/12/06 05:45:00;;;;;;;3.03;0.85;;;;;;;2.48;55.29;101836.56;5038744;28;20037;-74
2022/12/06 05:47:26;;;;;;;2.33;1.08;;;;;;;2.49;55.15;101831.41;5031333;28;20525;-74
2022/12/06 05:49:51;;;;;;;2.35;0.60;;;;;;;2.58;55.14;101840.97;5013231;28;20048;-69
2022/12/06 05:52:17;;;;;;;6.50;1.08;;;;;;;2.66;55.08;101844.44;5030008;28;20042;-68
2022/12/06 05:54:42;;;;;;;5.13;0.90;;;;;;;2.75;55.14;101844.53;5023296;28;20107;-66
2022/12/06 05:57:08;;;;;;;8.40;1.30;;;;;;;2.74;54.88;101841.94;5025541;28;20053;-64
2022/12/06 05:59:33;;;;;;;4.05;1.42;;;;;;;2.76;54.78;101838.53;5023827;28;20234;-66
2022/12/06 06:01:59;;;;;;;6.50;1.60;;;;;;;2.84;55.07;101843.72;5017341;28;20071;-66
2022/12/06 06:04:24;;;;;;;4.20;1.67;;;;;;;2.83;54.71;101838.56;5019793;28;20017;-65
2022/12/06 06:06:50;;;;;;;5.13;1.38;;;;;;;2.82;54.85;101845.44;5019537;28;20128;-65
2022/12/06 06:09:16;;;;;;;3.47;1.48;;;;;;;2.85;54.75;101844.63;5019996;28;20126;-66
2022/12/06 06:11:41;;;;;;;3.90;1.20;;;;;;;2.88;54.77;101836.88;5022330;28;20032;-68
2022/12/06 06:14:07;;;;;;;4.25;1.75;;;;;;;2.86;54.31;101831.69;5028461;28;20466;-68
2022/12/06 06:16:33;;;;;;;1.50;0.82;;;;;;;2.86;54.65;101839.44;5026331;28;20052;-68
2022/12/06 06:19:01;;;;;;;4.28;1.10;;;;;;;2.84;54.44;101848.03;5026627;28;20043;-67
2022/12/06 06:21:27;;;;;;;2.10;0.95;;;;;;;2.83;54.67;101838.56;5029089;28;20028;-67
2022/12/06 06:23:54;;;;;;;1.77;0.93;;;;;;;2.87;54.65;101846.34;5025329;28;21926;-67
2022/12/06 06:26:20;;;;;;;1.52;0.60;;;;;;;2.85;55.04;101844.63;5027566;28;20515;-70
2022/12/06 06:28:46;;;;;;;3.28;0.93;;;;;;;2.84;54.99;101848.03;5026634;28;20132;-70
2022/12/06 06:31:12;;;;;;;2.53;0.50;;;;;;;2.86;54.86;101848.91;5012581;28;20051;-70
2022/12/06 06:33:37;;;;;;;2.65;0.90;;;;;;;2.89;54.88;101841.19;4995260;28;20093;-70
2022/12/06 06:36:03;;;;;;;2.08;0.57;;;;;;;2.85;54.86;101839.47;5007985;28;20032;-69
2022/12/06 06:38:29;;;;;;;2.13;0.68;;;;;;;2.81;55.15;101845.44;5054806;28;20052;-70
2022/12/06 06:40:54;;;;;;;3.92;0.63;;;;;;;2.71;54.83;101829.88;5024909;28;20025;-70
2022/12/06 06:43:20;;;;;;;3.55;1.17;;;;;;;2.73;54.76;101825.59;5028714;28;20050;-70
2022/12/06 06:46:02;;;;;;;3.50;1.35;;;;;;;2.63;54.79;101836.69;5025823;28;20032;-72
2022/12/06 06:48:30;;;;;;;5.20;2.45;;;;;;;2.63;55.27;101834.09;5022779;28;20045;-70
2022/12/06 06:51:04;;;;;;;2.10;1.15;;;;;;;2.58;54.95;101835.78;5032027;28;20119;-65
2022/12/06 06:53:30;;;;;;;4.53;1.45;;;;;;;2.52;54.88;101840.91;5025810;28;20521;-68
2022/12/06 06:55:56;;;;;;;3.85;1.88;;;;;;;2.50;54.97;101833.13;5027178;28;21531;-68
2022/12/06 06:58:22;;;;;;;2.75;1.38;;;;;;;2.69;54.81;101844.50;5027200;28;20045;-67
2022/12/06 07:00:52;;;;;;;3.35;1.30;;;;;;;2.68;54.96;101847.91;5028291;28;20580;-72
2022/12/06 07:03:19;;;;;;;4.20;1.67;;;;;;;2.68;54.65;101837.59;5024564;28;20052;-72
2022/12/06 07:05:54;;;;;;;2.58;1.15;;;;;;;2.56;55.14;101842.66;5015809;28;20037;-66
2022/12/06 07:08:19;;;;;;;6.72;2.72;;;;;;;2.61;55.16;101840.97;5025469;28;20049;-67
2022/12/06 07:10:47;;;;;;;7.03;4.05;;;;;;;2.62;55.24;101840.09;5027530;28;20032;-66
2022/12/06 07:13:21;;;;;;;12.30;4.30;;;;;;;2.65;55.38;101837.56;5026993;28;20041;-68
2022/12/06 07:15:47;;;;;;;8.55;3.72;;;;;;;2.68;55.30;101845.31;5025434;28;20037;-70
2022/12/06 07:18:15;;;;;;;2.40;1.65;;;;;;;2.72;55.50;101839.34;5025621;28;20132;-71
2022/12/06 07:20:41;;;;;;;3.65;2.00;;;;;;;2.75;55.65;101841.06;5028406;28;20040;-70
2022/12/06 07:23:06;;;;;;;2.88;1.05;;;;;;;2.81;55.38;101845.44;5026944;28;20041;-71
2022/12/06 07:25:32;;;;;;;6.28;1.15;;;;;;;2.78;55.34;101846.28;5025379;28;20073;-71
2022/12/06 07:27:57;;;;;;;3.58;1.33;;;;;;;2.59;55.92;101847.84;5028113;28;20238;-68
2022/12/06 07:30:23;;;;;;;3.88;1.38;;;;;;;2.66;55.85;101846.16;5025466;28;20514;-68
2022/12/06 07:32:49;;;;;;;2.35;0.60;;;;;;;2.69;55.87;101849.66;5026607;28;20612;-72
2022/12/06 07:35:14;;;;;;;2.08;0.75;;;;;;;2.69;55.68;101849.66;5026405;28;20079;-74
2022/12/06 07:37:44;;;;;;;1.42;0.70;;;;;;;2.71;55.54;101853.13;5026078;28;20079;-75
2022/12/06 07:40:11;;;;;;;1.50;0.60;;;;;;;2.63;55.96;101852.19;5028615;28;20533;-67
2022/12/06 07:45:20;;;;;;;2.38;1.20;;;;;;;2.75;55.67;101854.84;5033171;28;20055;-66
2022/12/06 07:47:46;;;;;;;3.88;1.00;;;;;;;2.80;55.56;101854.03;5039486;28;20057;-67
2022/12/06 07:50:20;;;;;;;4.20;1.90;;;;;;;2.82;55.97;101854.91;5021806;28;20033;-66
2022/12/06 07:52:48;;;;;;;4.85;2.22;;;;;;;2.81;55.79;101850.59;5038144;28;20028;-66
2022/12/06 07:55:14;;;;;;;4.85;1.77;;;;;;;2.77;55.56;101852.28;5022570;28;20633;-66
2022/12/06 07:57:40;;;;;;;2.05;0.88;;;;;;;2.70;56.06;101856.53;5021283;28;20037;-68
2022/12/06 08:00:08;;;;;;;2.92;0.43;;;;;;;2.68;56.37;101850.50;5024150;28;20036;-67
2022/12/06 08:02:39;;;;;;;3.00;0.77;;;;;;;2.79;55.56;101854.88;5040056;28;20200;-66
2022/12/06 08:05:05;;;;;;;1.63;0.40;;;;;;;2.76;55.92;101846.28;5023654;28;20103;-67
2022/12/06 08:07:31;;;;;;;3.72;0.63;;;;;;;2.66;56.53;101849.59;5023067;28;20045;-73
2022/12/06 08:09:56;;;;;;;0.70;0.30;;;;;;;2.66;56.11;101848.75;5023299;28;20087;-68
2022/12/06 08:12:22;;;;;;;1.10;0.20;;;;;;;2.64;56.10;101845.28;5022448;28;20049;-66
2022/12/06 08:14:47;;;;;;;3.55;0.50;;;;;;;2.55;56.64;101848.66;5023824;28;20525;-65
2022/12/06 08:17:14;;;;;;;0.73;0.47;;;;;;;2.67;56.00;101846.19;5022813;28;20060;-66
2022/12/06 08:19:39;;;;;;;1.02;0.20;;;;;;;2.79;56.17;101852.31;5011955;28;20036;-65
2022/12/06 08:22:05;;;;;;;0.60;0.10;;;;;;;2.85;55.84;101845.47;5010711;28;20390;-66
2022/12/06 08:24:30;;;;;;;1.05;0.20;;;;;;;2.91;55.21;101852.38;5011284;28;20393;-66
2022/12/06 08:26:57;;;;;;;0.98;0.40;;;;;;;2.89;55.56;101849.81;5026946;28;20120;-66
2022/12/06 08:29:22;;;;;;;1.35;0.30;;;;;;;2.97;54.92;101853.31;5027564;28;20033;-66
2022/12/06 08:31:48;;;;;;;1.00;0.40;;;;;;;3.03;54.39;101859.38;5033749;28;20277;-66
2022/12/06 08:34:15;;;;;;;1.20;0.20;;;;;;;2.97;54.91;101855.88;5044632;28;20048;-66
2022/12/06 08:36:41;;;;;;;1.10;0.30;;;;;;;3.07;54.71;101849.09;5012742;28;20029;-68
2022/12/06 08:39:09;;;;;;;0.52;0.20;;;;;;;3.11;54.46;101848.25;5026120;28;20044;-68
2022/12/06 08:44:19;;;;;;;1.60;0.20;;;;;;;3.41;54.49;101857.06;5029067;28;20200;-68
2022/12/06 08:46:45;;;;;;;1.15;0.40;;;;;;;3.46;54.31;101854.50;5025604;28;20041;-66
2022/12/06 08:49:12;;;;;;;0.95;0.25;;;;;;;3.50;54.09;101851.94;5027211;28;20038;-68
2022/12/06 08:51:37;;;;;;;0.63;0.20;;;;;;;3.50;54.40;101862.28;5026119;28;20032;-68
2022/12/06 08:54:04;;;;;;;1.67;0.13;;;;;;;3.38;53.74;101867.38;5026645;28;20426;-68
2022/12/06 08:56:29;;;;;;;3.13;0.20;;;;;;;3.36;54.31;101861.38;5026813;28;20490;-69
2022/12/06 08:58:55;;;;;;;0.63;0.30;;;;;;;3.43;54.34;101862.25;5023909;28;20041;-69
2022/12/06 09:01:23;;;;;;;1.02;0.35;;;;;;;3.48;53.80;101860.56;5027506;28;20064;-69
2022/12/06 09:03:49;;;;;;;2.03;0.80;;;;;;;3.37;53.82;101866.53;5025232;28;20056;-68
2022/12/06 09:06:16;;;;;;;2.13;0.73;;;;;;;3.31;53.90;101865.63;5027108;28;20028;-69
2022/12/06 09:08:41;;;;;;;3.17;0.75;;;;;;;3.35;54.33;101862.19;5026292;28;20032;-68
2022/12/06 09:11:08;;;;;;;2.85;0.85;;;;;;;3.32;54.00;101863.06;5027095;28;20327;-69
2022/12/06 09:13:34;;;;;;;2.63;0.60;;;;;;;3.38;54.22;101857.94;5025169;28;20340;-68
2022/12/06 09:16:03;;;;;;;3.88;0.57;;;;;;;3.42;54.52;101853.63;5025946;28;20152;-69
2022/12/06 09:18:28;;;;;;;2.17;0.70;;;;;;;3.62;54.84;101855.47;5036157;28;20302;-69
2022/12/06 09:20:54;;;;;;;2.67;0.57;;;;;;;3.82;54.59;101858.13;5028518;28;20033;-69
2022/12/06 09:23:19;;;;;;;1.25;0.45;;;;;;;4.49;55.00;101854.84;5026348;28;20071;-68
2022/12/06 09:25:45;;;;;;;1.77;0.45;;;;;;;5.07;53.49;101862.66;5028142;28;20503;-69
2022/12/06 09:28:10;;;;;;;2.72;0.55;;;;;;;5.31;50.22;101859.16;5026661;28;20076;-69
2022/12/06 09:30:36;;;;;;;1.55;0.60;;;;;;;5.04;50.75;101862.66;5027474;28;20682;-69
2022/12/06 09:33:01;;;;;;;6.13;0.75;;;;;;;4.95;50.76;101862.66;5032413;28;20128;-69
2022/12/06 09:35:27;;;;;;;1.05;0.40;;;;;;;4.76;50.96;101862.63;5009976;28;20037;-68
2022/12/06 09:37:52;;;;;;;1.65;1.00;;;;;;;4.62;50.36;101864.34;5023790;28;20057;-69
2022/12/06 09:40:38;;;;;;;0.95;0.30;;;;;;;4.41;50.23;101853.13;5024270;28;20037;-69
2022/12/06 09:43:26;;;;;;;2.22;0.80;;;;;;;4.31;51.45;101853.94;5025220;28;20095;-75
2022/12/06 09:46:04;;;;;;;3.72;0.40;;;;;;;4.47;51.48;101852.25;5013406;28;20124;-75
2022/12/06 09:48:54;;;;;;;3.17;0.50;;;;;;;4.55;51.69;101847.94;5032632;28;20041;-75
2022/12/06 09:51:36;;;;;;;0.57;0.20;;;;;;;4.45;51.05;101850.53;5022960;28;20478;-75
2022/12/06 09:54:17;;;;;;;;;;;;;;;4.32;51.18;101847.03;5028202;28;20577;-71
2022/12/06 09:56:57;;;;;;;2.00;0.40;;;;;;;4.23;51.24;101842.75;5021620;28;19916;-71
2022/12/06 09:59:36;;;;;;;1.83;0.38;;;;;;;4.12;51.42;101836.66;5027655;28;20031;-68
2022/12/06 10:02:25;;;;;;;0.73;0.20;;;;;;;4.17;50.86;101846.16;5042572;28;20344;-68
2022/12/06 10:05:06;;;;;;;1.17;0.30;;;;;;;4.36;50.85;101836.72;5025804;28;20029;-69
2022/12/06 10:07:44;;;;;;;1.23;0.30;;;;;;;4.41;50.84;101839.31;5025625;28;20131;-69
2022/12/06 10:10:39;;;;;;;2.05;0.30;;;;;;;4.27;49.81;101841.88;5025699;28;20052;-74
2022/12/06 10:13:27;;;;;;;1.35;0.40;;;;;;;4.32;50.28;101844.44;5040416;28;20045;-74
2022/12/06 10:16:08;;;;;;;0.75;0.13;;;;;;;4.23;49.30;101845.34;5028830;28;20041;-70
2022/12/06 10:18:56;;;;;;;0.47;0.10;;;;;;;4.00;50.38;101848.69;5022941;28;20067;-70
2022/12/06 10:21:56;;;;;;;0.85;0.20;;;;;;;3.90;50.74;101848.69;5024490;28;20344;-68
2022/12/06 10:24:48;;;;;;;0.60;0.20;;;;;;;3.75;50.71;101846.91;5040108;28;20346;-70
2022/12/06 10:27:37;;;;;;;1.42;0.35;;;;;;;3.99;50.67;101841.81;5016521;28;20120;-69
2022/12/06 10:30:09;;;;;;;3.28;0.45;;;;;;;4.21;51.04;101831.53;5039668;28;20052;-67
2022/12/06 10:33:04;;;;;;;1.25;0.32;;;;;;;4.22;50.99;101834.09;5038172;28;20045;-68
2022/12/06 10:35:35;;;;;;;6.22;0.35;;;;;;;4.21;50.72;101829.78;5024674;28;20141;-65
2022/12/06 10:38:07;;;;;;;0.57;0.13;;;;;;;4.33;50.25;101830.66;5021799;28;20333;-69
2022/12/06 10:40:42;;;;;;;;;;;;;;;4.45;50.88;101822.03;5025080;28;20119;-68
2022/12/06 10:43:07;;;;;;;1.25;0.50;;;;;;;4.45;50.25;101824.63;5023093;28;20147;-69
2022/12/06 10:49:12;;;;;;;2.22;0.30;;;;;;;4.71;50.45;101827.25;5026698;28;20063;-69
2022/12/06 10:51:47;;;;;;;2.03;0.50;;;;;;;4.81;50.13;101818.59;5021912;28;20029;-68
2022/12/06 10:54:25;;;;;;;1.05;0.38;;;;;;;4.81;49.53;101822.06;5020550;28;20402;-70
2022/12/06 10:56:54;;;;;;;3.15;0.30;;;;;;;4.82;49.38;101817.75;5021254;28;20048;-69
2022/12/06 10:59:33;;;;;;;0.50;0.15;;;;;;;4.80;49.77;101811.69;5025270;28;20036;-70
2022/12/06 11:02:11;;;;;;;1.88;0.20;;;;;;;4.77;49.48;101812.56;5022654;28;20037;-68
2022/12/06 11:04:38;;;;;;;2.72;0.50;;;;;;;4.46;49.55;101805.66;5021367;28;20059;-69
2022/12/06 11:07:12;;;;;;;3.05;0.30;;;;;;;4.47;48.81;101812.56;5030803;28;20120;-68
2022/12/06 11:09:44;;;;;;;1.20;0.15;;;;;;;4.58;49.28;101810.84;5023681;28;20044;-69
2022/12/06 11:12:22;;;;;;;;;;;;;;;4.75;49.90;101803.06;5039162;28;20525;-69
2022/12/06 11:14:53;;;;;;;1.08;0.30;;;;;;;4.87;48.37;101802.19;5024739;28;20378;-66
2022/12/06 11:17:24;;;;;;;0.95;0.20;;;;;;;5.13;48.98;101800.44;5030996;28;20567;-67
2022/12/06 11:19:57;;;;;;;1.67;0.38;;;;;;;5.32;47.53;101792.59;5022676;28;20033;-68
2022/12/06 11:22:26;;;;;;;0.65;0.20;;;;;;;5.44;47.44;101797.75;5038426;28;20040;-69
2022/12/06 11:25:01;;;;;;;3.50;0.38;;;;;;;5.74;46.85;101788.13;5039369;28;20389;-70
2022/12/06 11:27:39;;;;;;;0.80;0.20;;;;;;;5.87;46.40;101792.38;5022603;28;20093;-67
2022/12/06 11:30:14;;;;;;;0.77;0.35;;;;;;;6.13;46.12;101792.22;5029003;28;20223;-66
2022/12/06 11:32:40;;;;;;;1.00;0.20;;;;;;;6.03;45.31;101778.41;5021803;28;20595;-67
2022/12/06 11:35:12;;;;;;;0.75;0.38;;;;;;;6.11;44.67;101780.13;5026545;28;20067;-68
2022/12/06 11:37:38;;;;;;;0.32;0.10;;;;;;;5.83;44.81;101777.69;5023223;28;20049;-69
2022/12/06 11:40:22;;;;;;;0.70;0.30;;;;;;;5.94;44.80;101775.88;5037693;28;20287;-68
2022/12/06 11:42:48;;;;;;;1.23;0.30;;;;;;;5.25;44.84;101774.47;5023799;28;20073;-66
2022/12/06 11:45:30;;;;;;;0.93;0.32;;;;;;;5.31;45.87;101778.78;5024239;28;20036;-66
2022/12/06 11:48:00;;;;;;;0.65;0.30;;;;;;;5.53;45.35;101768.34;5021299;28;20679;-67
2022/12/06 11:50:28;;;;;;;0.60;0.20;;;;;;;5.42;45.66;101766.66;5038450;28;20029;-66
2022/12/06 11:53:18;;;;;;;0.70;0.20;;;;;;;5.09;45.67;101766.78;5022059;28;20033;-67
2022/12/06 11:55:48;;;;;;;1.38;0.30;;;;;;;5.08;46.41;101765.91;5022082;28;20032;-67
2022/12/06 11:58:36;;;;;;;0.60;0.25;;;;;;;4.95;46.45;101757.31;5022634;28;20048;-68
2022/12/06 12:01:09;;;;;;;1.65;0.57;;;;;;;4.98;45.89;101759.03;5025491;28;20441;-66
2022/12/06 12:03:41;;;;;;;1.05;0.30;;;;;;;4.77;45.20;101755.59;5023193;28;20102;-66
2022/12/06 12:06:18;;;;;;;0.98;0.30;;;;;;;5.00;45.63;101759.88;5023777;28;20033;-67
2022/12/06 12:08:53;;;;;;;1.00;0.20;;;;;;;5.05;45.71;101758.13;5038491;28;20045;-64
2022/12/06 12:11:21;;;;;;;1.02;0.40;;;;;;;4.87;45.97;101760.75;5022793;28;20632;-65
2022/12/06 12:14:06;;;;;;;3.72;0.82;;;;;;;4.68;46.99;101755.59;5020072;28;20040;-67
2022/12/06 12:16:35;;;;;;;5.30;0.55;;;;;;;4.63;46.95;101752.13;5022446;28;20490;-68
2022/12/06 12:19:23;;;;;;;1.05;0.20;;;;;;;4.56;46.53;101753.00;5022502;28;20614;-68